WMKM/MKZ METAR and TAF weather

Enter ICAO airport designator
Station Type Date Time Source
WMKM METAR 2020/09/22 19:00 UTC NOAA

WMKM 221900Z VRB03KT 9999 FEW017CB 25/23 Q1010


Station Type Date Time Source
WMKM Decoded METAR 2020/09/22 19:00 UTC NOAA

Malacca, Malaysia (WMKM) 02-16N 102-15E 9M
Sep 22, 2020 - 03:00 PM EDT / 2020.09.22 1900 UTC
Wind: Variable at 3 MPH (3 KT):0
Visibility: greater than 7 mile(s):0
Sky conditions: mostly clear
Weather: Cumulonimbus clouds observed
Temperature: 77 F (25 C)
Dew Point: 73 F (23 C)
Relative Humidity: 88%
Pressure (altimeter): 29.83 in. Hg (1010 hPa)
ob: WMKM 221900Z VRB03KT 9999 FEW017CB 25/23 Q1010
cycle: 19

Station Type Date Time Source
WMKM TAF 2020/09/22 18:00 UTC NOAA

TAF WMKM 221700Z 2218/2318 05005KT 9999 FEW020
BECMG 2302/2304 23005KT FEW017CB

Example: see airport list